Airfield :
LOGIN :

Register | Disclaimer

   EN    FR    IT 

 










Legend :    VFR   Marginal VFR   IFR   Intensive IFR   Very Intensive IFR
Visi :
Ceiling :
>= 8 km
>= 3000ft
5 to 8 km
1000 to 3000 ft
1500m to 5 km
500 to 1000 ft
800 to 1500m
200 to 500 ft
< 800m
< 200 ft
Symbols :   Thunderstorms  Fog  Heavy snow  Heavy precipitations  Wind > 20 kt
SIGMETs :     Misc.  Thunderstorms  Icing  Turbulence  Mountain Waves  Volcanic Ashes







- Airport Elevation : 297 ft
- IATA code : UIP
- Download approach charts


LFRQ - Quimper Pluguffan

CURRENT METAR :
  • 160500Z AUTO 16002KT 0650 R28/0800N FG VV/// 09/09 Q1025

EXPIRED METARs :
  • 160430Z AUTO 14005KT 0600 0550 R28/0650N FG VV/// 09/09 Q1025
  • 160400Z AUTO 14005KT 0600 0550 R28/0650N FG VV/// 09/09 Q1024
  • 160330Z AUTO 15004KT 120V180 0800 0750 R28/0900N FG VV/// 09/09 Q1025
  • 160300Z AUTO 14004KT 1000 0900 R28/1100N BCFG VV/// 09/09 Q1025
  • 160230Z AUTO 14003KT 110V170 1500 1400 R28/1800D BR VV/// 09/09 Q1025

TAF TAF LFRQ
Valid from the 15 at 18:00 until the 16 at 18:00 UTC


151700Z 1518/1618 16008KT 8000 BKN007
BECMG 1518/1520 4000 BR
PROB30
TEMPO 1603/1607 0500 FG VV///
BECMG 1608/1611 4000 BR OVC008
BECMG 1611/1613 BKN012
No reported NOTAMs for that airfield.



MET'MAP, your aeronautical weather chart ! - Copyright ORBIFLY December 2007 - Disclaimer

ORBIFLY MET'MAP TEAM :

Programming & Development : Alexandra Zaïnal
Concept & Development : Baudouin d'Aumeries
Co-Development & Prog : Marc-Olivier Méhu
Technical & hardware support : Manuel Goepfert

Contact : metmap@orbifly.com




SOURCES & CREDITS :

   NOAA